createdAt,value
2022-09-01T00:00:34.846Z,100203.44
2022-09-01T00:03:03.099Z,100200.47
2022-09-01T00:05:33.141Z,100198.59
2022-09-01T00:08:01.466Z,100188.94
2022-09-01T00:10:29.524Z,100186.25
2022-09-01T00:12:57.739Z,100180.25
2022-09-01T00:15:27.796Z,100187.13
2022-09-01T00:17:55.843Z,100191.22
2022-09-01T00:20:24.009Z,100199.06
2022-09-01T00:22:52.119Z,100203.88
2022-09-01T00:25:21.135Z,100195.94
2022-09-01T00:27:49.717Z,100210.13
2022-09-01T00:30:18.266Z,100212.09
2022-09-01T00:32:48.613Z,100215.25
2022-09-01T00:35:18.904Z,100224.31
2022-09-01T00:37:47.006Z,100228.63
2022-09-01T00:40:17.650Z,100229.47
2022-09-01T00:42:48.959Z,100236.56
2022-09-01T00:45:17.213Z,100231.97
2022-09-01T00:47:47.095Z,100232.53
2022-09-01T00:50:19.964Z,100236.34
2022-09-01T00:52:52.664Z,100243.31
2022-09-01T00:55:26.584Z,100248.91
2022-09-01T00:57:55.081Z,100239.53
2022-09-01T01:00:26.008Z,100253.47
2022-09-01T01:02:56.981Z,100250.31
2022-09-01T01:05:27.974Z,100246.38
2022-09-01T01:07:57.183Z,100250.06
2022-09-01T01:10:26.777Z,100249.84
2022-09-01T01:12:55.079Z,100246.38
2022-09-01T01:15:23.503Z,100250.25
2022-09-01T01:17:51.682Z,100240.28
2022-09-01T01:20:44.270Z,100241.53
2022-09-01T01:23:20.867Z,100251.19
2022-09-01T01:25:53.854Z,100252.59
2022-09-01T01:28:24.632Z,100257.41
2022-09-01T01:30:56.424Z,100248.00
2022-09-01T01:47:58.649Z,100248.28
2022-09-01T01:50:35.724Z,100248.28
2022-09-01T01:53:11.019Z,100249.41
2022-09-01T01:55:41.837Z,100248.28
2022-09-01T01:58:12.365Z,100239.78
2022-09-01T02:00:47.362Z,100241.88
2022-09-01T02:03:38.453Z,100242.19
2022-09-01T02:06:09.708Z,100236.34
2022-09-01T02:08:40.820Z,100228.72
2022-09-01T02:11:09.846Z,100227.25
2022-09-01T02:13:37.984Z,100231.31
2022-09-01T02:16:12.258Z,100222.72
2022-09-01T02:18:44.407Z,100215.34
2022-09-01T02:21:18.443Z,100212.38
2022-09-01T02:23:49.652Z,100201.44
2022-09-01T02:26:19.117Z,100199.41
2022-09-01T02:28:55.743Z,100197.34
2022-09-01T02:31:25.223Z,100210.81
2022-09-01T02:33:55.413Z,100207.84
2022-09-01T02:36:25.364Z,100211.66
2022-09-01T02:38:56.756Z,100218.94
2022-09-01T02:41:27.254Z,100208.72
2022-09-01T02:43:55.380Z,100208.09
2022-09-01T02:46:24.379Z,100201.38
2022-09-01T02:48:54.639Z,100201.16
2022-09-01T02:51:26.219Z,100195.84
2022-09-01T02:53:55.116Z,100187.31
2022-09-01T02:56:25.959Z,100183.22
2022-09-01T02:58:54.947Z,100192.34
2022-09-01T03:01:25.519Z,100193.00
2022-09-01T03:03:57.499Z,100184.88
2022-09-01T03:06:25.987Z,100189.69
2022-09-01T03:08:59.682Z,100191.66
2022-09-01T03:11:30.093Z,100190.59
2022-09-01T03:13:58.689Z,100178.78
2022-09-01T03:16:27.181Z,100179.75
2022-09-01T03:18:57.223Z,100175.66
2022-09-01T03:21:25.722Z,100182.59
2022-09-01T03:23:54.323Z,100172.16
2022-09-01T03:26:23.797Z,100181.03
2022-09-01T03:28:53.165Z,100179.84
2022-09-01T03:31:22.218Z,100167.00
2022-09-01T03:33:51.108Z,100162.84
2022-09-01T03:36:20.758Z,100163.59
2022-09-01T03:38:51.412Z,100173.38
2022-09-01T03:41:22.683Z,100188.09
2022-09-01T03:43:51.292Z,100193.72
2022-09-01T03:46:21.604Z,100188.19
2022-09-01T03:48:51.783Z,100195.06
2022-09-01T03:51:23.253Z,100198.94
2022-09-01T03:53:55.130Z,100203.09
2022-09-01T03:56:27.035Z,100212.47
2022-09-01T03:58:57.055Z,100210.44
2022-09-01T04:01:26.682Z,100205.06
2022-09-01T04:03:55.213Z,100199.16
2022-09-01T04:06:26.038Z,100194.75
2022-09-01T04:08:57.823Z,100191.94
2022-09-01T04:11:26.470Z,100186.59
2022-09-01T04:13:54.532Z,100193.19
2022-09-01T04:16:42.479Z,100185.94
2022-09-01T04:19:20.451Z,100187.81
2022-09-01T04:21:51.770Z,100178.00
2022-09-01T04:24:20.310Z,100184.34
2022-09-01T04:26:49.762Z,100184.34
2022-09-01T04:29:19.796Z,100198.28
2022-09-01T04:31:52.150Z,100197.03
2022-09-01T04:34:22.646Z,100189.13
2022-09-01T04:36:55.257Z,100187.41
2022-09-01T04:39:24.332Z,100190.44
2022-09-01T04:41:52.703Z,100185.56
2022-09-01T04:44:20.918Z,100171.66
2022-09-01T04:46:50.655Z,100177.91
2022-09-01T04:49:22.586Z,100182.16
2022-09-01T04:51:54.425Z,100182.38
2022-09-01T04:54:24.898Z,100187.38
2022-09-01T04:56:55.066Z,100183.28
2022-09-01T04:59:27.212Z,100186.28
2022-09-01T05:01:55.671Z,100186.06
2022-09-01T05:04:27.492Z,100188.53
2022-09-01T05:07:01.165Z,100182.16
2022-09-01T05:09:30.412Z,100183.47
2022-09-01T05:12:11.014Z,100183.09
2022-09-01T05:14:42.545Z,100180.19
2022-09-01T05:17:12.050Z,100185.41
2022-09-01T05:19:43.196Z,100190.78
2022-09-01T05:22:13.256Z,100184.81
2022-09-01T05:24:42.255Z,100179.16
2022-09-01T05:27:12.382Z,100182.47
2022-09-01T05:29:41.739Z,100188.84
2022-09-01T05:32:10.251Z,100192.63
2022-09-01T05:34:39.100Z,100194.81
2022-09-01T05:37:08.851Z,100198.75
2022-09-01T05:39:39.040Z,100192.59
2022-09-01T05:42:08.540Z,100189.91
2022-09-01T05:44:37.103Z,100190.31
2022-09-01T05:47:06.542Z,100190.44
2022-09-01T05:49:34.871Z,100190.94
2022-09-01T05:52:03.410Z,100193.28
2022-09-01T05:54:32.594Z,100194.63
2022-09-01T05:57:23.347Z,100198.28
2022-09-01T05:59:54.047Z,100200.13
2022-09-01T06:02:23.147Z,100192.66
2022-09-01T06:04:52.992Z,100189.59
2022-09-01T06:07:25.235Z,100195.81
2022-09-01T06:09:54.120Z,100198.41
2022-09-01T06:12:25.021Z,100208.69
2022-09-01T06:14:55.077Z,100209.03
2022-09-01T06:17:25.931Z,100214.06
2022-09-01T06:19:56.275Z,100211.59
2022-09-01T06:22:26.309Z,100209.50
2022-09-01T06:24:58.248Z,100200.69
2022-09-01T06:27:31.320Z,100193.53
2022-09-01T06:30:00.092Z,100204.53
2022-09-01T06:32:37.028Z,100204.34
2022-09-01T06:35:08.663Z,100204.31
2022-09-01T06:37:38.264Z,100207.44
2022-09-01T06:40:10.711Z,100206.25
2022-09-01T06:42:41.786Z,100203.03
2022-09-01T06:45:11.673Z,100212.31
2022-09-01T06:47:40.485Z,100211.97
2022-09-01T06:50:09.160Z,100216.22
2022-09-01T06:55:34.673Z,100216.09
2022-09-01T06:58:06.584Z,100214.69
2022-09-01T07:00:41.940Z,100227.28
2022-09-01T07:03:11.673Z,100226.22
2022-09-01T07:08:29.078Z,100226.66
2022-09-01T07:16:51.778Z,100222.00
2022-09-01T07:19:21.624Z,100244.00
2022-09-01T07:24:40.141Z,100239.13
2022-09-01T07:27:09.563Z,100235.09
2022-09-01T07:29:41.628Z,100231.41
2022-09-01T07:38:47.809Z,100231.63
2022-09-01T07:42:31.732Z,100227.44
2022-09-01T07:43:32.672Z,100235.09
2022-09-01T07:49:29.270Z,100244.56
2022-09-01T07:51:45.561Z,100242.25
2022-09-01T07:54:14.224Z,100232.28
2022-09-01T07:56:42.759Z,100246.22
2022-09-01T07:59:14.760Z,100246.75
2022-09-01T08:01:45.297Z,100249.16
2022-09-01T08:04:13.787Z,100248.28
2022-09-01T08:06:42.117Z,100247.31
2022-09-01T08:09:27.390Z,100243.97
2022-09-01T08:12:02.705Z,100249.44
2022-09-01T08:14:34.288Z,100251.19
2022-09-01T08:19:54.475Z,100244.44
2022-09-01T08:22:25.275Z,100241.16
2022-09-01T08:24:54.708Z,100239.00
2022-09-01T08:27:23.421Z,100238.03
2022-09-01T08:29:51.613Z,100248.00
2022-09-01T08:32:22.542Z,100247.25
2022-09-01T08:34:50.955Z,100247.59
2022-09-01T08:37:19.808Z,100249.69
2022-09-01T08:39:49.486Z,100252.41
2022-09-01T08:42:27.041Z,100253.69
2022-09-01T08:45:09.696Z,100249.31
2022-09-01T08:47:55.920Z,100247.31
2022-09-01T08:50:27.432Z,100251.19
2022-09-01T08:53:09.721Z,100244.69
2022-09-01T08:55:44.955Z,100248.06
2022-09-01T08:58:17.107Z,100249.63
2022-09-01T09:00:54.892Z,100253.88
2022-09-01T09:03:48.208Z,100242.53
2022-09-01T09:06:22.931Z,100239.97
2022-09-01T09:08:58.936Z,100242.38
2022-09-01T09:11:51.926Z,100231.03
2022-09-01T09:14:38.544Z,100244.81
2022-09-01T09:17:06.902Z,100243.22
2022-09-01T09:19:39.608Z,100236.84
2022-09-01T09:22:11.516Z,100243.66
2022-09-01T09:24:52.331Z,100237.72
2022-09-01T09:27:23.106Z,100226.31
2022-09-01T09:29:53.493Z,100234.72
2022-09-01T09:32:28.075Z,100223.19
2022-09-01T09:35:20.287Z,100226.25
2022-09-01T09:37:49.310Z,100230.56
2022-09-01T09:40:20.432Z,100235.97
2022-09-01T09:43:05.324Z,100226.84
2022-09-01T09:45:35.640Z,100228.31
2022-09-01T09:48:10.771Z,100221.72
2022-09-01T09:50:44.024Z,100222.47
2022-09-01T09:53:16.342Z,100212.00
2022-09-01T09:55:56.200Z,100219.97
2022-09-01T09:58:26.749Z,100213.47
2022-09-01T10:01:17.305Z,100208.38
2022-09-01T10:03:49.846Z,100203.97
2022-09-01T10:06:34.034Z,100209.22
2022-09-01T10:09:05.235Z,100210.41
2022-09-01T10:11:41.389Z,100200.63
2022-09-01T10:14:35.790Z,100207.88
2022-09-01T10:17:09.680Z,100194.97
2022-09-01T10:19:42.058Z,100194.16
2022-09-01T10:22:15.200Z,100202.97
2022-09-01T10:24:45.855Z,100199.50
2022-09-01T10:27:21.763Z,100204.34
2022-09-01T10:32:54.249Z,100190.81
2022-09-01T10:35:28.098Z,100198.09
2022-09-01T10:38:01.448Z,100199.50
2022-09-01T10:40:48.931Z,100204.22
2022-09-01T10:43:41.073Z,100189.31
2022-09-01T10:46:50.402Z,100185.19
2022-09-01T10:49:38.481Z,100192.38
2022-09-01T10:52:12.956Z,100191.00
2022-09-01T10:54:57.212Z,100199.44
2022-09-01T10:57:43.418Z,100191.56
2022-09-01T11:03:52.002Z,100193.81
2022-09-01T11:06:38.849Z,100187.38
2022-09-01T11:09:18.570Z,100203.78
2022-09-01T11:12:02.005Z,100192.56
2022-09-01T11:14:35.687Z,100190.97
2022-09-01T11:17:14.416Z,100188.09
2022-09-01T11:19:45.754Z,100188.19
2022-09-01T11:22:26.635Z,100185.75
2022-09-01T11:25:22.540Z,100174.34
2022-09-01T11:28:01.300Z,100186.81
2022-09-01T11:30:52.043Z,100175.28
2022-09-01T11:33:39.939Z,100179.28
2022-09-01T11:36:15.941Z,100174.91
2022-09-01T11:38:51.278Z,100175.16
2022-09-01T11:41:25.457Z,100165.34
2022-09-01T11:43:58.980Z,100174.06
2022-09-01T11:46:29.935Z,100167.47
2022-09-01T11:48:59.109Z,100165.56
2022-09-01T11:51:27.483Z,100161.78
2022-09-01T11:54:01.627Z,100162.16
2022-09-01T11:56:30.300Z,100154.34
2022-09-01T11:58:59.997Z,100166.44
2022-09-01T12:01:34.385Z,100168.38
2022-09-01T12:04:22.329Z,100161.28
2022-09-01T12:06:59.075Z,100164.16
2022-09-01T12:09:34.764Z,100157.69
2022-09-01T12:12:03.963Z,100161.91
2022-09-01T12:14:55.034Z,100154.09
2022-09-01T12:17:22.467Z,100149.38
2022-09-01T12:19:51.028Z,100152.44
2022-09-01T12:22:21.574Z,100137.91
2022-09-01T12:24:51.836Z,100147.38
2022-09-01T12:27:20.936Z,100142.31
2022-09-01T12:29:51.440Z,100153.19
2022-09-01T12:32:20.427Z,100138.91
2022-09-01T12:35:01.481Z,100143.34
2022-09-01T12:37:30.925Z,100161.50
2022-09-01T12:40:00.401Z,100152.56
2022-09-01T12:42:41.115Z,100153.56
2022-09-01T12:45:14.309Z,100153.06
2022-09-01T12:47:51.102Z,100137.94
2022-09-01T12:50:45.932Z,100135.75
2022-09-01T12:53:30.356Z,100139.81
2022-09-01T12:56:21.302Z,100131.47
2022-09-01T12:58:54.470Z,100135.56
2022-09-01T13:01:28.872Z,100128.25
2022-09-01T13:04:17.704Z,100132.41
2022-09-01T13:06:46.160Z,100135.31
2022-09-01T13:09:14.456Z,100132.41
2022-09-01T13:14:32.338Z,100133.13
2022-09-01T13:17:02.306Z,100127.59
2022-09-01T13:19:30.885Z,100129.09
2022-09-01T13:21:59.620Z,100126.25
2022-09-01T13:24:30.450Z,100126.41
2022-09-01T13:29:48.955Z,100119.75
2022-09-01T13:32:22.341Z,100132.19
2022-09-01T13:34:52.606Z,100136.25
2022-09-01T13:37:21.538Z,100142.34
2022-09-01T13:39:50.407Z,100127.25
2022-09-01T13:42:19.116Z,100129.28
2022-09-01T13:44:49.642Z,100141.00
2022-09-01T13:47:29.176Z,100134.91
2022-09-01T13:50:07.270Z,100139.66
2022-09-01T13:52:37.109Z,100151.34
2022-09-01T13:55:06.624Z,100138.59
2022-09-01T13:57:36.321Z,100131.16
2022-09-01T14:00:10.837Z,100132.19
2022-09-01T14:02:41.260Z,100126.41
2022-09-01T14:05:10.325Z,100133.53
2022-09-01T14:07:38.690Z,100141.50
2022-09-01T14:10:08.982Z,100143.53
2022-09-01T14:12:37.544Z,100146.94
2022-09-01T14:15:12.049Z,100143.03
2022-09-01T14:17:44.802Z,100132.66
2022-09-01T14:20:15.896Z,100130.44
2022-09-01T14:22:44.186Z,100140.28
2022-09-01T14:25:12.775Z,100126.34
2022-09-01T14:27:42.668Z,100136.34
2022-09-01T14:30:15.900Z,100136.34
2022-09-01T14:32:45.627Z,100133.69
2022-09-01T14:35:15.117Z,100140.81
2022-09-01T14:37:44.058Z,100135.03
2022-09-01T14:40:16.778Z,100134.16
2022-09-01T14:42:49.360Z,100137.25
2022-09-01T14:45:19.663Z,100159.00
2022-09-01T14:47:51.013Z,100148.31
2022-09-01T14:50:22.916Z,100141.34
2022-09-01T14:52:54.299Z,100145.06
2022-09-01T14:55:23.515Z,100139.63
2022-09-01T14:57:52.249Z,100140.47
2022-09-01T15:00:20.782Z,100137.06
2022-09-01T15:02:50.217Z,100147.09
2022-09-01T15:05:18.628Z,100149.47
2022-09-01T15:07:49.441Z,100147.78
2022-09-01T15:10:25.090Z,100144.56
2022-09-01T15:12:55.212Z,100144.88
2022-09-01T15:15:24.570Z,100142.16
2022-09-01T15:17:54.698Z,100147.75
2022-09-01T15:20:41.680Z,100146.25
2022-09-01T15:23:11.111Z,100146.56
2022-09-01T15:25:39.476Z,100134.84
2022-09-01T15:28:07.631Z,100135.56
2022-09-01T15:30:36.995Z,100138.59
2022-09-01T15:33:09.872Z,100144.56
2022-09-01T15:35:41.494Z,100135.56
2022-09-01T15:38:10.369Z,100134.53
2022-09-01T15:40:42.770Z,100142.88
2022-09-01T15:43:11.642Z,100134.00
2022-09-01T15:45:40.463Z,100146.44
2022-09-01T15:48:10.096Z,100147.63
2022-09-01T15:50:38.649Z,100145.59
2022-09-01T15:53:12.009Z,100144.75
2022-09-01T15:55:43.131Z,100146.09
2022-09-01T15:58:12.949Z,100145.94
2022-09-01T16:00:42.306Z,100156.13
2022-09-01T16:03:12.161Z,100146.09
2022-09-01T16:05:41.961Z,100145.94
2022-09-01T16:08:11.644Z,100147.44
2022-09-01T16:10:42.291Z,100148.09
2022-09-01T16:13:10.867Z,100151.13
2022-09-01T16:15:47.366Z,100151.16
2022-09-01T16:18:29.994Z,100156.88
2022-09-01T16:21:04.900Z,100156.88
2022-09-01T16:23:41.553Z,100157.19
2022-09-01T16:26:11.807Z,100154.47
2022-09-01T16:28:40.640Z,100157.69
2022-09-01T16:31:13.268Z,100150.34
2022-09-01T16:33:49.199Z,100158.81
2022-09-01T16:36:34.715Z,100160.47
2022-09-01T16:39:14.093Z,100150.00
2022-09-01T16:41:54.220Z,100152.44
2022-09-01T16:44:33.421Z,100156.16
2022-09-01T16:47:09.211Z,100159.66
2022-09-01T16:49:47.718Z,100153.06
2022-09-01T16:52:25.395Z,100159.41
2022-09-01T16:55:06.678Z,100161.41
2022-09-01T16:57:47.192Z,100159.84
2022-09-01T17:00:19.115Z,100172.28
2022-09-01T17:02:52.776Z,100166.28
2022-09-01T17:05:30.100Z,100167.81
2022-09-01T17:08:07.759Z,100171.66
2022-09-01T17:10:42.650Z,100165.19
2022-09-01T17:13:20.474Z,100172.25
2022-09-01T17:15:56.022Z,100178.63
2022-09-01T17:18:33.624Z,100174.13
2022-09-01T17:21:12.409Z,100177.25
2022-09-01T17:23:48.807Z,100182.97
2022-09-01T17:26:23.148Z,100180.88
2022-09-01T17:28:56.543Z,100177.75
2022-09-01T17:31:38.674Z,100179.09
2022-09-01T17:34:18.737Z,100171.59
2022-09-01T17:37:01.987Z,100172.19
2022-09-01T17:39:36.496Z,100170.13
2022-09-01T17:42:11.377Z,100171.66
2022-09-01T17:44:46.291Z,100179.34
2022-09-01T17:47:21.394Z,100182.63
2022-09-01T17:49:59.087Z,100187.50
2022-09-01T17:52:45.252Z,100192.88
2022-09-01T17:55:37.695Z,100198.09
2022-09-01T17:58:13.358Z,100200.69
2022-09-01T18:00:49.965Z,100202.84
2022-09-01T18:03:31.886Z,100204.97
2022-09-01T18:06:05.511Z,100211.78
2022-09-01T18:08:40.701Z,100217.22
2022-09-01T18:11:12.612Z,100220.66
2022-09-01T18:13:53.281Z,100219.56
2022-09-01T18:16:25.668Z,100221.16
2022-09-01T18:18:54.528Z,100231.03
2022-09-01T18:21:26.496Z,100230.31
2022-09-01T18:24:03.243Z,100234.75
2022-09-01T18:26:35.339Z,100233.31
2022-09-01T18:29:06.191Z,100232.63
2022-09-01T18:32:00.153Z,100229.97
2022-09-01T18:34:44.889Z,100232.84
2022-09-01T18:37:24.254Z,100235.97
2022-09-01T18:40:03.782Z,100239.06
2022-09-01T18:42:38.734Z,100243.38
2022-09-01T18:45:18.163Z,100242.53
2022-09-01T18:47:57.403Z,100249.50
2022-09-01T18:50:34.321Z,100249.78
2022-09-01T18:53:14.255Z,100247.91
2022-09-01T18:55:51.478Z,100249.34
2022-09-01T18:58:36.140Z,100253.06
2022-09-01T19:01:07.677Z,100253.31
2022-09-01T19:03:41.495Z,100251.22
2022-09-01T19:06:25.304Z,100252.78
2022-09-01T19:09:04.740Z,100253.94
2022-09-01T19:11:43.616Z,100260.59
2022-09-01T19:14:20.765Z,100251.63
2022-09-01T19:17:03.047Z,100261.16
2022-09-01T19:19:40.017Z,100261.59
2022-09-01T19:22:09.515Z,100262.59
2022-09-01T19:24:44.550Z,100267.84
2022-09-01T19:27:15.933Z,100266.69
2022-09-01T19:29:52.417Z,100262.09
2022-09-01T19:32:22.537Z,100267.09
2022-09-01T19:34:54.392Z,100266.38
2022-09-01T19:37:22.880Z,100267.78
2022-09-01T19:39:54.355Z,100272.19
2022-09-01T19:42:29.710Z,100273.75
2022-09-01T19:45:07.030Z,100274.00
2022-09-01T19:47:42.894Z,100277.31
2022-09-01T19:50:20.124Z,100283.09
2022-09-01T19:52:55.571Z,100282.09
2022-09-01T19:55:31.362Z,100287.78
2022-09-01T19:58:06.019Z,100281.47
2022-09-01T20:00:52.488Z,100293.19
2022-09-01T20:03:27.353Z,100289.78
2022-09-01T20:06:01.192Z,100294.75
2022-09-01T20:08:38.668Z,100294.56
2022-09-01T20:11:14.694Z,100293.03
2022-09-01T20:14:13.059Z,100289.66
2022-09-01T20:16:45.872Z,100295.03
2022-09-01T20:19:19.910Z,100289.31
2022-09-01T20:21:49.667Z,100306.06
2022-09-01T20:24:32.914Z,100300.41
2022-09-01T20:27:05.353Z,100300.13
2022-09-01T20:29:44.435Z,100310.38
2022-09-01T20:32:27.628Z,100300.59
2022-09-01T20:34:59.681Z,100303.66
2022-09-01T20:37:33.745Z,100307.66
2022-09-01T20:40:06.315Z,100306.81
2022-09-01T20:42:47.497Z,100312.53
2022-09-01T20:45:19.323Z,100309.66
2022-09-01T20:47:52.472Z,100318.47
2022-09-01T20:50:21.615Z,100312.28
2022-09-01T20:53:02.667Z,100315.44
2022-09-01T20:55:38.709Z,100324.25
2022-09-01T20:58:22.853Z,100318.53
2022-09-01T21:01:00.953Z,100324.50
2022-09-01T21:03:38.682Z,100328.22
2022-09-01T21:06:20.420Z,100326.38
2022-09-01T21:08:54.257Z,100331.78
2022-09-01T21:11:32.580Z,100330.47
2022-09-01T21:14:14.878Z,100334.50
2022-09-01T21:16:58.625Z,100341.84
2022-09-01T21:19:32.032Z,100340.81
2022-09-01T21:22:06.322Z,100351.69
2022-09-01T21:24:34.960Z,100353.25
2022-09-01T21:27:07.627Z,100347.19
2022-09-01T21:29:53.631Z,100347.31
2022-09-01T21:32:23.496Z,100353.91
2022-09-01T21:34:53.148Z,100346.81
2022-09-01T21:37:23.676Z,100350.88
2022-09-01T21:39:53.092Z,100355.34
2022-09-01T21:42:23.687Z,100353.25
2022-09-01T21:44:54.352Z,100353.84
2022-09-01T21:47:24.628Z,100350.03
2022-09-01T21:49:52.864Z,100352.34
2022-09-01T21:52:21.278Z,100360.00
2022-09-01T21:54:49.639Z,100357.25
2022-09-01T21:57:17.808Z,100359.03
2022-09-01T21:59:45.914Z,100354.41
2022-09-01T22:02:14.197Z,100356.66
2022-09-01T22:04:44.286Z,100349.09
2022-09-01T22:07:18.671Z,100348.84
2022-09-01T22:09:47.145Z,100347.31
2022-09-01T22:12:15.912Z,100338.50
2022-09-01T22:14:44.255Z,100336.53
2022-09-01T22:17:12.809Z,100341.91
2022-09-01T22:19:41.013Z,100339.41
2022-09-01T22:22:10.650Z,100329.75
2022-09-01T22:24:39.119Z,100335.66
2022-09-01T22:27:07.561Z,100329.16
2022-09-01T22:29:36.056Z,100332.78
2022-09-01T22:32:04.711Z,100328.16
2022-09-01T22:34:34.049Z,100329.53
2022-09-01T22:37:02.608Z,100325.56
2022-09-01T22:39:32.149Z,100321.16
2022-09-01T22:42:00.256Z,100317.97
2022-09-01T22:44:28.359Z,100316.84
2022-09-01T22:46:56.468Z,100311.78
2022-09-01T22:49:24.613Z,100316.28
2022-09-01T22:51:52.690Z,100319.00
2022-09-01T22:54:20.886Z,100318.16
2022-09-01T22:56:52.524Z,100320.50
2022-09-01T22:59:22.627Z,100312.44
2022-09-01T23:01:51.460Z,100322.97
2022-09-01T23:04:19.669Z,100319.78
2022-09-01T23:06:50.781Z,100328.00
2022-09-01T23:09:20.828Z,100313.41
2022-09-01T23:11:50.784Z,100323.81
2022-09-01T23:14:19.528Z,100319.56
2022-09-01T23:16:51.119Z,100316.63
2022-09-01T23:19:19.804Z,100319.00
2022-09-01T23:21:48.460Z,100309.63
2022-09-01T23:24:16.635Z,100320.41
2022-09-01T23:26:48.326Z,100311.44
2022-09-01T23:29:18.446Z,100318.44
2022-09-01T23:31:46.946Z,100318.78
2022-09-01T23:34:16.737Z,100315.88
2022-09-01T23:36:44.937Z,100313.94
2022-09-01T23:39:13.016Z,100310.63
2022-09-01T23:41:41.566Z,100305.59
2022-09-01T23:44:12.094Z,100309.56
2022-09-01T23:46:44.159Z,100297.38
2022-09-01T23:49:14.472Z,100308.28
2022-09-01T23:51:43.111Z,100304.38
2022-09-01T23:54:11.953Z,100309.78
2022-09-01T23:56:40.621Z,100311.97
2022-09-01T23:59:09.208Z,100304.31
